• Join FlightAware (Why Join?)
  • Login
  • US Flag GB Flag 
22:51 EST


 

Airport Tracker/Info


-or-


 

Live Flight TrackerFlight Track Log ✈ EJA982 ✈ 16-Jun-2013 ✈ KOTH - CYYC

Flight Track Log - Related Links

Times and Time Zones

All times are in EDT time to prevent confusion due to time zone crossing. See the EJA982 flight status page for this flight to view local times or setup timezone preferences in your user account.

Time Position Orientation Groundspeed Altitude Reporting Facility
EDT Latitude Longitude Course Direction KTS MPH feet Rate Location/Type
14:15 43.4281 -124.3064 39° Northeast 264 304 3,100  Level Seattle Center
14:16 43.4928 -124.2603 27° Northeast 267 307 7,500 5,100 Climbing Seattle Center
14:17 43.5606 -124.1475 50° Northeast 312 359 13,500 4,080 Climbing Seattle Center
14:18 43.6242 -124.0461 49° Northeast 351 404 15,800 2,100 Climbing Seattle Center
14:19 43.9896 -123.6151 38° Northeast  Level Estimated
14:19 43.7050 -123.9314 46° Northeast 414 476 17,800  Level Seattle Center
14:20 44.0846 -123.5086 39° Northeast  Level Estimated
14:20 43.7900 -123.8139 45° Northeast 423 487 19,900  Level Seattle Center
14:21 44.1796 -123.4017 39° Northeast  Level Estimated
14:21 43.8744 -123.6842 48° Northeast 444 511 22,000  Level Seattle Center
14:22 43.9617 -123.5544 47° Northeast 459 528 23,900 1,980 Climbing Seattle Center
14:23 44.0522 -123.4206 47° Northeast 474 545 26,100 2,040 Climbing Seattle Center
14:24 44.1472 -123.2817 46° Northeast 490 564 28,100 1,860 Climbing Seattle Center
14:25 44.2397 -123.1403 48° Northeast 502 578 30,000 1,860 Climbing Seattle Center
14:27 44.3375 -122.9944 47° Northeast 516 594 32,000 2,160 Climbing Seattle Center
14:28 44.4522 -122.8208 47° Northeast 512 589 34,500 1,680 Climbing Seattle Center
14:29 44.5519 -122.6686 47° Northeast 527 606 35,500 960 Climbing Seattle Center
14:30 44.6514 -122.5153 48° Northeast 546 628 36,500 960 Climbing Seattle Center
14:31 44.7564 -122.3544 47° Northeast 557 641 37,500 960 Climbing Seattle Center
14:32 44.8603 -122.1928 48° Northeast 557 641 38,500 960 Climbing Seattle Center
14:33 44.9633 -122.0286 48° Northeast 552 635 39,500 960 Climbing Seattle Center
14:34 45.0700 -121.8669 47° Northeast 548 631 40,500 720 Climbing Seattle Center
14:35 45.1692 -121.7089 48° Northeast 540 621 41,000 240 Climbing Seattle Center
14:36 45.2686 -121.5489 49° Northeast 541 623 41,000  Level Seattle Center
14:37 45.3700 -121.3861 48° Northeast 548 631 41,000  Level Seattle Center
14:38 45.4717 -121.2225 48° Northeast 550 633 41,000  Level Seattle Center
14:39 45.5731 -121.0600 48° Northeast 548 631 41,000  Level Seattle Center
14:40 45.6922 -120.8644 49° Northeast 543 625 41,000  Level Seattle Center
14:41 45.7936 -120.6992 49° Northeast 549 632 41,000  Level Seattle Center
14:42 45.8939 -120.5325 49° Northeast 551 634 41,000  Level Seattle Center
14:43 45.9933 -120.3672 49° Northeast 548 631 41,000  Level Seattle Center
14:44 46.0933 -120.2000 49° Northeast 552 635 41,000  Level Seattle Center
14:45 46.1933 -120.0322 49° Northeast 550 633 41,000  Level Seattle Center
14:46 46.2922 -119.8681 49° Northeast 545 627 41,000  Level Seattle Center
14:47 46.3906 -119.6981 50° Northeast 549 632 41,000  Level Seattle Center
14:48 46.4969 -119.5417 45° Northeast 545 627 41,000  Level Seattle Center
14:49 46.6261 -119.4247 32° Northeast 550 633 41,000  Level Seattle Center
14:50 46.7558 -119.3039 33° Northeast 554 638 41,000  Level Seattle Center
14:51 46.9056 -119.1650 32° Northeast 553 636 41,000  Level Seattle Center
14:52 47.0347 -119.0428 33° Northeast 555 639 41,000  Level Seattle Center
14:53 47.1628 -118.9183 33° Northeast 554 638 41,000  Level Seattle Center
14:54 47.2958 -118.7964 32° Northeast 561 646 41,000  Level Seattle Center
14:55 47.4189 -118.6722 34° Northeast 545 627 41,000  Level Seattle Center
14:56 47.5472 -118.5486 33° Northeast 550 633 41,000  Level Seattle Center
14:57 47.6758 -118.4247 33° Northeast 550 633 41,000  Level Seattle Center
14:58 47.8019 -118.2994 34° Northeast 547 629 41,000  Level Seattle Center
14:59 47.9306 -118.1747 33° Northeast 549 632 41,000  Level Seattle Center
15:00 48.0561 -118.0497 34° Northeast 544 626 41,000  Level Seattle Center
15:01 48.1842 -117.9244 33° Northeast 548 631 41,000  Level Seattle Center
15:02 48.3078 -117.7997 34° Northeast 539 620 41,000  Level Seattle Center
15:03 48.4306 -117.6761 34° Northeast 532 612 41,000  Level Seattle Center
15:04 48.5786 -117.5247 34° Northeast 533 613 41,000  Level Seattle Center
15:05 48.7025 -117.3981 34° Northeast 535 616 41,000  Level Seattle Center
15:06 48.8264 -117.2708 34° Northeast 538 619 41,000  Level Seattle Center
15:07 48.9333 -117.1333 40° Northeast 540 621 41,000  Level Vancouver Center
15:08 49.0333 -117.0000 41° Northeast 540 621 41,000  Level Vancouver Center
15:09 49.1667 -116.8833 30° Northeast 540 621 41,000  Level Vancouver Center
15:10 49.2833 -116.7500 37° Northeast 530 610 41,000  Level Vancouver Center
15:11 49.4000 -116.6333 33° Northeast 530 610 41,000  Level Vancouver Center
15:12 49.5333 -116.4833 36° Northeast 530 610 41,000  Level Vancouver Center
15:13 49.6500 -116.3667 33° Northeast 530 610 41,000  Level Vancouver Center
15:14 49.7667 -116.2167 40° Northeast 530 610 41,000  Level Vancouver Center
15:15 49.8833 -116.1000 33° Northeast 530 610 41,000 -1,200 Level Vancouver Center
15:16 50.0000 -115.9667 36° Northeast 520 598 38,700 -2,760 Descending Vancouver Center
15:17 50.1000 -115.9167 18° North 520 598 35,900 -3,240 Descending Edmonton Center
15:18 50.2167 -115.7833 36° Northeast 500 575 32,600 -3,240 Descending Edmonton Center
15:19 50.3333 -115.6667 33° Northeast 500 575 29,500 -2,640 Descending Edmonton Center
15:20 50.4333 -115.5167 44° Northeast 490 564 27,400 -2,700 Descending Edmonton Center
15:21 50.5333 -115.3833 40° Northeast 480 552 24,200 -2,820 Descending Edmonton Center
15:22 50.6333 -115.2500 40° Northeast 470 541 21,800 -2,100 Descending Edmonton Center
15:23 50.7333 -115.1333 36° Northeast 440 506 20,000 -1,080 Descending Edmonton Center
15:24 50.8167 -115.0000 45° Northeast 440 506 19,700 -960 Descending Edmonton Center
15:25 50.8667 -114.8167 67° East 450 518 18,100 -1,500 Descending Edmonton Center
15:26 50.9167 -114.6500 64° Northeast 430 495 16,800 -2,100 Descending Edmonton Center
15:27 50.9500 -114.4833 72° East 400 460 14,000 -2,460 Descending Edmonton Center
15:28 51.0000 -114.3167 64° Northeast 350 403 11,900 -2,100 Descending Edmonton Center
15:29 50.9833 -114.2000 103° East 290 334 9,900 -1,920 Descending Edmonton Center
15:30 50.9167 -114.1833 171° South 230 265 8,100 -1,200 Descending Edmonton Center
15:31 50.8833 -114.1333 137° Southeast 230 265 7,500 -840 Descending Edmonton Center
15:32 50.9167 -114.0500 58° Northeast 190 219 6,500 -1,020 Descending Edmonton Center
15:33 50.9667 -114.0333 12° North 170 196 5,500 -960 Descending Edmonton Center
15:34 51.0167 -114.0500 348° North 170 196 4,600 -840 Descending Edmonton Center
15:35 51.0500 -114.0500 360° North 140 161 3,900 -720 Descending Edmonton Center